createdAt,value
2018-11-26T00:02:00.097Z,8.08
2018-11-26T00:05:26.324Z,8.15
2018-11-26T00:08:52.536Z,8.15
2018-11-26T00:12:19.120Z,8.19
2018-11-26T00:15:45.386Z,8.23
2018-11-26T00:19:11.565Z,8.21
2018-11-26T00:22:37.800Z,8.15
2018-11-26T00:26:04.020Z,8.10
2018-11-26T00:29:30.357Z,8.19
2018-11-26T00:32:56.577Z,8.28
2018-11-26T00:36:22.765Z,8.28
2018-11-26T00:39:49.336Z,8.21
2018-11-26T00:43:15.572Z,8.18
2018-11-26T00:46:41.796Z,8.33
2018-11-26T00:50:09.715Z,8.26
2018-11-26T00:53:35.937Z,8.25
2018-11-26T00:57:02.121Z,8.28
2018-11-26T01:00:28.366Z,8.28
2018-11-26T01:03:55.013Z,8.19
2018-11-26T01:07:21.227Z,8.38
2018-11-26T01:10:47.446Z,8.36
2018-11-26T01:14:14.041Z,8.21
2018-11-26T01:17:40.244Z,8.18
2018-11-26T01:21:06.524Z,8.26
2018-11-26T01:24:32.763Z,8.11
2018-11-26T01:27:59.006Z,8.14
2018-11-26T01:31:25.175Z,8.25
2018-11-26T01:34:51.413Z,8.16
2018-11-26T01:38:18.751Z,8.04
2018-11-26T01:41:45.378Z,8.19
2018-11-26T01:45:12.096Z,8.19
2018-11-26T01:48:38.367Z,8.12
2018-11-26T01:52:04.658Z,8.29
2018-11-26T01:55:30.907Z,8.17
2018-11-26T01:58:57.134Z,8.17
2018-11-26T02:02:23.348Z,8.22
2018-11-26T02:05:49.593Z,8.24
2018-11-26T02:09:15.819Z,8.39
2018-11-26T02:12:42.095Z,8.35
2018-11-26T02:16:08.408Z,8.13
2018-11-26T02:19:34.671Z,8.22
2018-11-26T02:23:01.070Z,8.32
2018-11-26T02:26:27.810Z,8.33
2018-11-26T02:29:54.077Z,8.23
2018-11-26T02:33:20.608Z,8.28
2018-11-26T02:36:47.183Z,8.17
2018-11-26T02:40:31.707Z,8.30
2018-11-26T02:43:57.873Z,8.15
2018-11-26T02:47:24.346Z,8.24
2018-11-26T02:50:50.841Z,8.17
2018-11-26T02:54:17.053Z,8.17
2018-11-26T02:57:43.585Z,8.25
2018-11-26T03:01:09.963Z,8.38
2018-11-26T03:04:36.231Z,8.31
2018-11-26T03:08:02.786Z,8.24
2018-11-26T03:11:29.097Z,8.33
2018-11-26T03:14:55.370Z,8.17
2018-11-26T03:18:21.552Z,8.25
2018-11-26T03:21:47.791Z,8.26
2018-11-26T03:25:14.400Z,8.28
2018-11-26T03:28:40.613Z,8.39
2018-11-26T03:32:06.863Z,8.40
2018-11-26T03:35:33.060Z,8.33
2018-11-26T03:38:59.259Z,8.29
2018-11-26T03:42:25.492Z,8.36
2018-11-26T03:45:51.704Z,8.20
2018-11-26T03:49:17.894Z,8.23
2018-11-26T03:52:45.476Z,8.22
2018-11-26T03:56:11.697Z,8.21
2018-11-26T03:59:38.253Z,8.17
2018-11-26T04:03:04.495Z,8.24
2018-11-26T04:06:31.002Z,8.24
2018-11-26T04:09:57.275Z,8.17
2018-11-26T04:13:23.536Z,8.14
2018-11-26T04:16:49.757Z,8.15
2018-11-26T04:20:15.992Z,8.20
2018-11-26T04:23:42.221Z,8.20
2018-11-26T04:27:08.593Z,8.28
2018-11-26T04:30:34.792Z,8.33
2018-11-26T04:34:01.342Z,8.35
2018-11-26T04:37:27.980Z,8.44
2018-11-26T04:40:54.225Z,8.36
2018-11-26T04:44:20.463Z,8.34
2018-11-26T04:47:46.697Z,8.35
2018-11-26T04:51:13.361Z,8.23
2018-11-26T04:54:39.583Z,8.32
2018-11-26T04:58:06.181Z,8.22
2018-11-26T05:01:32.397Z,8.25
2018-11-26T05:04:58.597Z,8.32
2018-11-26T05:08:24.826Z,8.19
2018-11-26T05:11:51.104Z,8.27
2018-11-26T05:15:17.369Z,8.14
2018-11-26T05:18:43.560Z,8.26
2018-11-26T05:22:10.121Z,8.17
2018-11-26T05:25:36.355Z,8.27
2018-11-26T05:29:02.987Z,8.34
2018-11-26T05:32:29.218Z,8.25
2018-11-26T05:35:55.484Z,8.23
2018-11-26T05:39:21.712Z,8.20
2018-11-26T05:42:47.923Z,8.09
2018-11-26T05:46:14.157Z,8.10
2018-11-26T05:49:40.648Z,8.19
2018-11-26T05:53:07.480Z,8.10
2018-11-26T05:56:33.739Z,8.00
2018-11-26T05:59:59.958Z,8.00
2018-11-26T06:03:26.189Z,8.00
2018-11-26T06:06:52.390Z,8.00
2018-11-26T06:10:18.731Z,7.95
2018-11-26T06:13:44.992Z,7.96
2018-11-26T06:17:11.226Z,8.02
2018-11-26T06:20:37.545Z,7.97
2018-11-26T06:24:04.007Z,7.87
2018-11-26T06:27:30.906Z,7.73
2018-11-26T06:30:57.573Z,7.73
2018-11-26T06:34:23.819Z,7.58
2018-11-26T06:37:50.432Z,8.54
2018-11-26T06:41:16.582Z,8.03
2018-11-26T06:44:42.800Z,7.85
2018-11-26T06:48:09.131Z,7.83
2018-11-26T06:51:35.324Z,7.74
2018-11-26T06:55:01.549Z,7.68
2018-11-26T06:58:27.743Z,7.82
2018-11-26T07:01:53.937Z,7.80
2018-11-26T07:05:21.915Z,7.85
2018-11-26T07:08:48.603Z,7.86
2018-11-26T07:12:15.197Z,7.92
2018-11-26T07:15:41.478Z,7.86
2018-11-26T07:19:08.048Z,7.93
2018-11-26T07:22:34.261Z,7.96
2018-11-26T07:26:00.606Z,8.04
2018-11-26T07:29:27.043Z,7.97
2018-11-26T07:32:53.193Z,8.07
2018-11-26T07:36:19.520Z,8.18
2018-11-26T07:39:45.786Z,8.09
2018-11-26T07:43:15.832Z,8.08
2018-11-26T07:47:14.868Z,8.24
2018-11-26T07:50:39.689Z,8.34
2018-11-26T07:54:04.508Z,8.20
2018-11-26T07:57:29.212Z,8.15
2018-11-26T08:00:53.937Z,8.22
2018-11-26T08:04:18.683Z,8.32
2018-11-26T08:07:43.493Z,8.47
2018-11-26T08:11:08.887Z,8.38
2018-11-26T08:14:33.625Z,8.55
2018-11-26T08:17:58.498Z,8.58
2018-11-26T08:21:23.245Z,8.54
2018-11-26T08:24:48.044Z,8.56
2018-11-26T08:28:12.717Z,8.52
2018-11-26T08:31:37.514Z,8.67
2018-11-26T08:35:02.236Z,8.65
2018-11-26T08:38:30.982Z,8.77
2018-11-26T08:41:55.776Z,8.76
2018-11-26T08:45:25.143Z,8.86
2018-11-26T08:48:55.119Z,8.82
2018-11-26T08:52:20.410Z,8.90
2018-11-26T08:55:45.183Z,8.96
2018-11-26T08:59:10.011Z,8.92
2018-11-26T09:02:38.765Z,9.03
2018-11-26T09:06:04.271Z,9.05
2018-11-26T09:09:32.749Z,9.12
2018-11-26T09:12:53.855Z,9.04
2018-11-26T09:16:18.616Z,9.13
2018-11-26T09:19:43.497Z,9.24
2018-11-26T09:23:08.288Z,9.30
2018-11-26T09:26:33.022Z,9.35
2018-11-26T09:29:57.810Z,9.27
2018-11-26T09:33:22.635Z,9.32
2018-11-26T09:36:47.510Z,9.51
2018-11-26T09:40:14.525Z,9.65
2018-11-26T09:43:39.311Z,9.61
2018-11-26T09:47:09.693Z,9.57
2018-11-26T09:50:34.536Z,9.79
2018-11-26T09:53:59.342Z,9.70
2018-11-26T09:57:24.116Z,9.79
2018-11-26T10:00:48.866Z,9.90
2018-11-26T10:04:13.701Z,9.96
2018-11-26T10:07:38.475Z,9.88
2018-11-26T10:11:03.325Z,9.99
2018-11-26T10:14:28.020Z,9.79
2018-11-26T10:17:53.144Z,10.01
2018-11-26T10:21:17.934Z,9.98
2018-11-26T10:24:42.764Z,9.94
2018-11-26T10:28:07.574Z,9.96
2018-11-26T10:31:32.367Z,10.04
2018-11-26T10:34:57.173Z,9.86
2018-11-26T10:38:21.964Z,9.94
2018-11-26T10:41:46.742Z,9.95
2018-11-26T10:45:13.353Z,10.12
2018-11-26T10:48:38.146Z,10.05
2018-11-26T10:52:02.935Z,9.91
2018-11-26T10:55:35.689Z,9.99
2018-11-26T10:59:00.505Z,9.94
2018-11-26T11:02:30.395Z,9.93
2018-11-26T11:05:55.339Z,9.94
2018-11-26T11:09:20.141Z,9.94
2018-11-26T11:12:44.968Z,9.88
2018-11-26T11:16:09.842Z,10.08
2018-11-26T11:19:34.626Z,9.89
2018-11-26T11:22:59.493Z,9.85
2018-11-26T11:26:24.286Z,9.86
2018-11-26T11:29:49.051Z,9.75
2018-11-26T11:36:37.633Z,9.93
2018-11-26T11:40:02.471Z,10.04
2018-11-26T11:43:27.296Z,9.80
2018-11-26T11:46:52.136Z,9.70
2018-11-26T11:50:18.754Z,9.83
2018-11-26T11:53:43.546Z,9.85
2018-11-26T11:57:08.380Z,9.98
2018-11-26T12:00:40.509Z,10.02
2018-11-26T12:04:05.985Z,10.04
2018-11-26T12:07:30.811Z,10.10
2018-11-26T12:10:55.566Z,10.20
2018-11-26T12:14:20.380Z,10.21
2018-11-26T12:17:46.302Z,10.16
2018-11-26T12:21:11.119Z,10.25
2018-11-26T12:24:35.874Z,10.27
2018-11-26T12:28:00.701Z,10.37
2018-11-26T12:31:25.536Z,10.18
2018-11-26T12:34:50.304Z,10.44
2018-11-26T12:38:15.141Z,10.23
2018-11-26T12:41:40.025Z,10.32
2018-11-26T12:45:06.273Z,10.36
2018-11-26T12:48:31.145Z,10.19
2018-11-26T12:51:55.856Z,10.41
2018-11-26T12:55:22.070Z,10.42
2018-11-26T12:58:46.845Z,10.53
2018-11-26T13:02:11.739Z,10.51
2018-11-26T13:05:36.616Z,10.56
2018-11-26T13:09:01.425Z,10.54
2018-11-26T13:12:26.305Z,10.53
2018-11-26T13:15:51.139Z,10.71
2018-11-26T13:19:15.939Z,10.68
2018-11-26T13:22:40.757Z,10.65
2018-11-26T13:26:05.679Z,10.54
2018-11-26T13:29:30.592Z,10.51
2018-11-26T13:32:58.125Z,10.63
2018-11-26T13:36:23.124Z,10.41
2018-11-26T13:39:47.930Z,10.32
2018-11-26T13:43:17.128Z,10.41
2018-11-26T13:46:41.936Z,10.34
2018-11-26T13:50:09.929Z,10.36
2018-11-26T13:53:34.673Z,10.41
2018-11-26T13:56:59.377Z,10.32
2018-11-26T14:00:24.181Z,10.60
2018-11-26T14:03:48.957Z,10.45
2018-11-26T14:07:13.640Z,10.18
2018-11-26T14:10:38.385Z,10.21
2018-11-26T14:14:03.131Z,10.12
2018-11-26T14:17:27.854Z,10.17
2018-11-26T14:20:52.650Z,10.07
2018-11-26T14:24:17.370Z,9.92
2018-11-26T14:27:43.352Z,9.90
2018-11-26T14:31:08.182Z,9.71
2018-11-26T14:34:32.916Z,9.85
2018-11-26T14:38:00.272Z,9.85
2018-11-26T14:41:24.989Z,9.64
2018-11-26T14:44:50.456Z,9.52
2018-11-26T14:48:15.290Z,9.56
2018-11-26T14:51:40.106Z,9.48
2018-11-26T14:55:05.531Z,9.43
2018-11-26T14:58:30.239Z,9.40
2018-11-26T15:01:54.985Z,9.38
2018-11-26T15:05:19.768Z,9.27
2018-11-26T15:08:44.550Z,9.32
2018-11-26T15:12:09.322Z,9.10
2018-11-26T15:15:33.991Z,9.14
2018-11-26T15:18:58.931Z,9.14
2018-11-26T15:22:24.886Z,9.15
2018-11-26T15:25:49.804Z,8.98
2018-11-26T15:29:14.940Z,8.88
2018-11-26T15:32:40.209Z,8.82
2018-11-26T15:36:04.998Z,8.91
2018-11-26T15:39:30.201Z,8.87
2018-11-26T15:42:56.762Z,8.80
2018-11-26T15:46:27.522Z,8.74
2018-11-26T15:49:52.280Z,8.61
2018-11-26T15:53:18.345Z,8.66
2018-11-26T15:56:43.486Z,8.55
2018-11-26T16:00:16.025Z,8.76
2018-11-26T16:03:40.998Z,8.67
2018-11-26T16:07:06.316Z,8.64
2018-11-26T16:10:31.151Z,8.59
2018-11-26T16:13:56.411Z,8.54
2018-11-26T16:17:21.248Z,8.55
2018-11-26T16:20:46.308Z,8.43
2018-11-26T16:24:11.102Z,8.61
2018-11-26T16:27:36.934Z,8.54
2018-11-26T16:31:01.712Z,8.56
2018-11-26T16:34:27.035Z,8.43
2018-11-26T16:37:51.886Z,8.45
2018-11-26T16:41:16.608Z,8.19
2018-11-26T16:44:45.464Z,8.26
2018-11-26T16:48:10.424Z,8.27
2018-11-26T16:51:35.197Z,8.24
2018-11-26T16:55:00.285Z,8.27
2018-11-26T16:58:25.107Z,8.25
2018-11-26T17:01:49.912Z,8.16
2018-11-26T17:05:20.045Z,8.14
2018-11-26T17:08:44.849Z,8.06
2018-11-26T17:12:09.685Z,8.09
2018-11-26T17:15:34.577Z,8.03
2018-11-26T17:18:59.401Z,7.97
2018-11-26T17:22:24.267Z,8.07
2018-11-26T17:25:49.087Z,7.98
2018-11-26T17:29:13.893Z,8.00
2018-11-26T17:32:45.605Z,7.90
2018-11-26T17:36:13.032Z,7.87
2018-11-26T17:39:41.736Z,7.69
2018-11-26T17:43:07.901Z,7.77
2018-11-26T17:46:32.723Z,7.96
2018-11-26T17:49:57.575Z,7.82
2018-11-26T17:53:22.934Z,7.96
2018-11-26T17:56:47.711Z,7.88
2018-11-26T18:00:17.867Z,7.58
2018-11-26T18:03:44.322Z,7.79
2018-11-26T18:07:09.036Z,7.80
2018-11-26T18:10:33.840Z,7.70
2018-11-26T18:13:59.342Z,7.90
2018-11-26T18:17:24.201Z,7.80
2018-11-26T18:20:49.473Z,7.69
2018-11-26T18:24:14.400Z,7.61
2018-11-26T18:27:41.222Z,7.62
2018-11-26T18:31:07.150Z,7.55
2018-11-26T18:34:31.860Z,7.48
2018-11-26T18:37:56.683Z,7.61
2018-11-26T18:41:21.439Z,7.49
2018-11-26T18:44:46.133Z,7.47
2018-11-26T18:48:12.690Z,7.49
2018-11-26T18:51:37.457Z,7.52
2018-11-26T18:55:02.294Z,7.45
2018-11-26T18:58:27.064Z,7.58
2018-11-26T19:01:51.786Z,7.50
2018-11-26T19:05:17.538Z,7.50
2018-11-26T19:08:42.368Z,7.38
2018-11-26T19:12:07.668Z,7.48
2018-11-26T19:15:36.838Z,7.62
2018-11-26T19:19:01.692Z,7.51
2018-11-26T19:22:27.007Z,7.39
2018-11-26T19:25:53.264Z,7.48
2018-11-26T19:29:18.025Z,7.48
2018-11-26T19:32:43.990Z,7.58
2018-11-26T19:36:09.704Z,7.52
2018-11-26T19:39:35.136Z,7.62
2018-11-26T19:43:02.331Z,7.58
2018-11-26T19:46:28.231Z,7.58
2018-11-26T19:49:55.451Z,7.50
2018-11-26T19:53:20.614Z,7.49
2018-11-26T19:56:45.504Z,7.62
2018-11-26T20:00:23.592Z,7.60
2018-11-26T20:03:54.160Z,7.50
2018-11-26T20:07:20.356Z,7.48
2018-11-26T20:10:46.394Z,7.39
2018-11-26T20:14:21.325Z,7.64
2018-11-26T20:17:39.908Z,7.50
2018-11-26T20:21:06.108Z,7.50
2018-11-26T20:24:31.705Z,7.42
2018-11-26T20:27:57.085Z,7.42
2018-11-26T20:31:22.623Z,7.47
2018-11-26T20:34:48.566Z,7.38
2018-11-26T20:38:16.545Z,7.50
2018-11-26T20:41:42.539Z,7.35
2018-11-26T20:45:14.116Z,7.28
2018-11-26T20:48:39.825Z,7.29
2018-11-26T20:52:06.782Z,7.25
2018-11-26T20:55:32.520Z,7.24
2018-11-26T20:58:57.387Z,7.33
2018-11-26T21:02:22.505Z,7.30
2018-11-26T21:05:47.607Z,7.13
2018-11-26T21:09:12.783Z,7.20
2018-11-26T21:12:38.018Z,7.08
2018-11-26T21:16:03.942Z,6.99
2018-11-26T21:19:29.603Z,6.99
2018-11-26T21:22:57.760Z,6.88
2018-11-26T21:26:22.843Z,6.88
2018-11-26T21:29:47.813Z,6.93
2018-11-26T21:33:12.831Z,6.88
2018-11-26T21:36:37.793Z,6.66
2018-11-26T21:40:02.716Z,6.61
2018-11-26T21:43:27.675Z,6.51
2018-11-26T21:46:53.060Z,6.31
2018-11-26T21:50:17.736Z,6.32
2018-11-26T21:53:42.708Z,6.22
2018-11-26T21:57:08.018Z,6.10
2018-11-26T22:00:33.793Z,6.07
2018-11-26T22:03:58.739Z,6.07
2018-11-26T22:07:23.890Z,6.08
2018-11-26T22:10:48.722Z,6.00
2018-11-26T22:14:13.687Z,6.04
2018-11-26T22:17:39.415Z,5.94
2018-11-26T22:21:04.474Z,6.11
2018-11-26T22:24:29.444Z,6.04
2018-11-26T22:27:55.214Z,6.18
2018-11-26T22:31:20.151Z,6.15
2018-11-26T22:34:45.083Z,6.09
2018-11-26T22:38:10.053Z,6.22
2018-11-26T22:41:34.729Z,6.02
2018-11-26T22:44:59.451Z,6.09
2018-11-26T22:48:24.158Z,5.95
2018-11-26T22:51:51.506Z,6.02
2018-11-26T22:55:14.956Z,5.93
2018-11-26T22:58:39.689Z,5.88
2018-11-26T23:02:04.438Z,5.99
2018-11-26T23:05:29.328Z,6.14
2018-11-26T23:08:54.026Z,6.03
2018-11-26T23:12:18.636Z,6.04
2018-11-26T23:15:43.345Z,6.09
2018-11-26T23:19:08.253Z,6.28
2018-11-26T23:22:32.950Z,6.14
2018-11-26T23:25:57.734Z,6.14
2018-11-26T23:29:22.394Z,6.15
2018-11-26T23:32:48.881Z,6.37
2018-11-26T23:36:13.566Z,6.15
2018-11-26T23:39:38.271Z,6.34
2018-11-26T23:43:03.110Z,6.30
2018-11-26T23:46:27.773Z,6.28
2018-11-26T23:49:52.454Z,6.20
2018-11-26T23:53:17.142Z,6.16
2018-11-26T23:56:41.838Z,6.17
